Overview Statistics Trail Chart Weather Telemetry Raw packets
 

This is the latest recevied weather packets stored in our database for station/object IZ7EXI-13. If no packets are shown the sender has not sent any weather packets the latest 10 day(s).

<< 39 40 41 42 43 44 45 >>
Time Temp. Humidity Pressure Rain* Wind** Luminosity Snow
1787924961 39.44° C 31% 1016.4 hPa - - - -
1787924098 38.89° C 32% 1016.7 hPa - - - -
1787924061 38.89° C 32% 1016.7 hPa - - - -
1787923278 39.44° C 29% 1016.9 hPa - - - -
1787923252 39.44° C 29% 1016.9 hPa - - - -
1787923161 39.44° C 29% 1016.9 hPa - - - -
1787922315 40° C 29% 1017.1 hPa - - - -
1787922298 40° C 29% 1017.1 hPa - - - -
1787922259 40° C 29% 1017.1 hPa - - - -
1787921395 40.56° C 29% 1017.4 hPa - - - -
1787921368 40.56° C 29% 1017.4 hPa - - - -
1787920519 40.56° C 27% 1017.5 hPa - - - -
1787920498 40.56° C 27% 1017.5 hPa - - - -
1787920458 40.56° C 27% 1017.5 hPa - - - -
1787919588 40° C 27% 1017.6 hPa - - - -
1787919558 40° C 27% 1017.6 hPa - - - -
1787918687 40.56° C 27% 1017.8 hPa - - - -
1787918658 40.56° C 27% 1017.8 hPa - - - -
1787917794 39.44° C 28% 1017.8 hPa - - - -
1787917758 39.44° C 28% 1017.8 hPa - - - -
1787916890 39.44° C 29% 1017.8 hPa - - - -
1787916857 39.44° C 29% 1017.8 hPa - - - -
1787915957 38.89° C 31% 1017.9 hPa - - - -
1787915088 38.33° C 36% 1018 hPa - - - -
1787915057 38.33° C 36% 1018 hPa - - - -

* Rain since midnight (hover to see other rain measurements)
** Current wind speed in m/s (hover to see current wind gust speed)